createdAt,value
2017-11-10T00:01:56.209Z,19.58
2017-11-10T00:04:22.454Z,19.56
2017-11-10T00:06:48.693Z,19.56
2017-11-10T00:09:15.010Z,19.59
2017-11-10T00:11:41.257Z,19.58
2017-11-10T00:14:07.527Z,19.54
2017-11-10T00:16:34.265Z,19.52
2017-11-10T00:19:00.505Z,19.50
2017-11-10T00:21:26.755Z,19.50
2017-11-10T00:23:53.057Z,19.48
2017-11-10T00:26:19.334Z,19.49
2017-11-10T00:28:45.582Z,19.51
2017-11-10T00:31:11.967Z,19.53
2017-11-10T00:33:38.214Z,19.51
2017-11-10T00:36:04.476Z,19.52
2017-11-10T00:38:30.851Z,19.53
2017-11-10T00:40:57.107Z,19.47
2017-11-10T00:43:23.369Z,19.42
2017-11-10T00:45:50.054Z,19.39
2017-11-10T00:48:16.304Z,19.42
2017-11-10T00:50:42.615Z,19.45
2017-11-10T00:53:08.911Z,19.45
2017-11-10T00:55:35.129Z,19.46
2017-11-10T00:58:01.325Z,19.47
2017-11-10T01:00:27.589Z,19.47
2017-11-10T01:02:54.063Z,19.47
2017-11-10T01:05:20.263Z,19.49
2017-11-10T01:07:46.594Z,19.47
2017-11-10T01:10:12.801Z,19.46
2017-11-10T01:12:39.097Z,19.43
2017-11-10T01:15:05.343Z,19.46
2017-11-10T01:17:31.980Z,19.46
2017-11-10T01:19:58.185Z,19.44
2017-11-10T01:22:24.387Z,19.43
2017-11-10T01:24:50.976Z,19.41
2017-11-10T01:27:17.192Z,19.41
2017-11-10T01:29:43.441Z,19.41
2017-11-10T01:32:09.781Z,19.41
2017-11-10T01:34:35.993Z,19.39
2017-11-10T01:37:02.195Z,19.41
2017-11-10T01:39:28.539Z,19.42
2017-11-10T01:41:54.981Z,19.43
2017-11-10T01:44:21.192Z,19.44
2017-11-10T01:46:47.473Z,19.43
2017-11-10T01:49:13.685Z,19.44
2017-11-10T01:51:40.125Z,19.44
2017-11-10T01:54:06.736Z,19.44
2017-11-10T01:56:32.970Z,19.43
2017-11-10T01:58:59.190Z,19.42
2017-11-10T02:01:25.483Z,19.41
2017-11-10T02:03:52.064Z,19.40
2017-11-10T02:06:18.276Z,19.41
2017-11-10T02:08:44.639Z,19.40
2017-11-10T02:11:11.082Z,19.42
2017-11-10T02:13:37.282Z,19.40
2017-11-10T02:16:04.043Z,19.39
2017-11-10T02:18:30.261Z,19.33
2017-11-10T02:20:56.481Z,19.29
2017-11-10T02:23:22.748Z,19.27
2017-11-10T02:25:49.199Z,19.28
2017-11-10T02:28:15.416Z,19.29
2017-11-10T02:30:41.676Z,19.27
2017-11-10T02:33:07.884Z,19.26
2017-11-10T02:35:34.117Z,19.27
2017-11-10T02:38:00.404Z,19.26
2017-11-10T02:40:26.612Z,19.22
2017-11-10T02:42:52.833Z,19.24
2017-11-10T02:45:19.189Z,19.22
2017-11-10T02:47:45.404Z,19.21
2017-11-10T02:50:11.873Z,19.20
2017-11-10T02:52:38.238Z,19.20
2017-11-10T02:55:04.725Z,19.20
2017-11-10T02:57:30.930Z,19.19
2017-11-10T02:59:57.284Z,19.19
2017-11-10T03:02:23.736Z,19.18
2017-11-10T03:04:49.972Z,19.17
2017-11-10T03:07:16.574Z,19.18
2017-11-10T03:09:42.795Z,19.18
2017-11-10T03:12:09.037Z,19.16
2017-11-10T03:14:35.781Z,19.19
2017-11-10T03:17:02.141Z,19.22
2017-11-10T03:19:28.614Z,19.28
2017-11-10T03:21:54.965Z,19.32
2017-11-10T03:24:21.183Z,19.32
2017-11-10T03:26:47.644Z,19.32
2017-11-10T03:29:13.918Z,19.30
2017-11-10T03:31:40.120Z,19.32
2017-11-10T03:34:06.352Z,19.33
2017-11-10T03:36:32.966Z,19.34
2017-11-10T03:38:59.428Z,19.34
2017-11-10T03:41:25.856Z,19.33
2017-11-10T03:43:52.195Z,19.26
2017-11-10T03:46:18.520Z,19.22
2017-11-10T03:48:44.740Z,19.22
2017-11-10T03:51:11.031Z,19.20
2017-11-10T03:53:37.486Z,19.18
2017-11-10T03:56:03.722Z,19.18
2017-11-10T03:58:30.251Z,19.23
2017-11-10T04:00:56.494Z,19.30
2017-11-10T04:03:22.704Z,19.31
2017-11-10T04:05:49.390Z,19.22
2017-11-10T04:08:15.619Z,19.28
2017-11-10T04:10:42.074Z,19.32
2017-11-10T04:13:08.417Z,19.33
2017-11-10T04:15:34.638Z,19.33
2017-11-10T04:18:00.853Z,19.30
2017-11-10T04:20:27.721Z,19.33
2017-11-10T04:22:53.952Z,19.31
2017-11-10T04:25:20.156Z,19.32
2017-11-10T04:27:46.429Z,19.32
2017-11-10T04:30:12.860Z,19.32
2017-11-10T04:32:39.071Z,19.32
2017-11-10T04:35:05.709Z,19.29
2017-11-10T04:37:31.917Z,19.29
2017-11-10T04:39:58.133Z,19.26
2017-11-10T04:42:24.580Z,19.23
2017-11-10T04:44:50.833Z,19.24
2017-11-10T04:47:17.065Z,19.22
2017-11-10T04:49:43.640Z,19.18
2017-11-10T04:52:10.049Z,19.16
2017-11-10T04:54:36.259Z,19.14
2017-11-10T04:57:02.640Z,19.11
2017-11-10T04:59:28.840Z,19.13
2017-11-10T05:01:55.057Z,19.22
2017-11-10T05:04:21.347Z,19.37
2017-11-10T05:06:47.621Z,19.44
2017-11-10T05:09:13.827Z,19.46
2017-11-10T05:11:40.165Z,19.39
2017-11-10T05:14:06.640Z,19.37
2017-11-10T05:16:33.187Z,19.37
2017-11-10T05:18:59.864Z,19.38
2017-11-10T05:21:26.068Z,19.37
2017-11-10T05:23:52.294Z,19.38
2017-11-10T05:26:19.155Z,19.35
2017-11-10T05:28:45.360Z,19.31
2017-11-10T05:31:11.626Z,19.33
2017-11-10T05:33:37.930Z,19.30
2017-11-10T05:36:04.247Z,19.34
2017-11-10T05:38:30.463Z,19.35
2017-11-10T05:40:56.792Z,19.31
2017-11-10T05:43:23.017Z,19.28
2017-11-10T05:45:49.273Z,19.27
2017-11-10T05:48:16.172Z,19.26
2017-11-10T05:50:42.439Z,19.25
2017-11-10T05:53:08.663Z,19.27
2017-11-10T05:55:35.284Z,19.26
2017-11-10T05:58:01.633Z,19.23
2017-11-10T06:00:28.470Z,19.20
2017-11-10T06:02:55.455Z,19.17
2017-11-10T06:05:22.179Z,19.15
2017-11-10T06:07:49.347Z,19.14
2017-11-10T06:10:16.217Z,19.12
2017-11-10T06:12:42.467Z,19.11
2017-11-10T06:15:08.699Z,19.10
2017-11-10T06:17:34.985Z,19.07
2017-11-10T06:20:01.444Z,19.07
2017-11-10T06:22:27.676Z,19.09
2017-11-10T06:24:53.936Z,19.08
2017-11-10T06:27:20.141Z,19.07
2017-11-10T06:29:47.059Z,19.06
2017-11-10T06:32:13.767Z,19.04
2017-11-10T06:34:40.305Z,19.02
2017-11-10T06:37:06.597Z,19.01
2017-11-10T06:39:32.863Z,19.04
2017-11-10T06:41:59.080Z,19.03
2017-11-10T06:44:25.545Z,19.07
2017-11-10T06:46:51.810Z,19.09
2017-11-10T06:49:18.028Z,19.11
2017-11-10T06:54:35.067Z,19.04
2017-11-10T06:57:01.286Z,19.02
2017-11-10T06:59:27.514Z,19.04
2017-11-10T07:01:53.787Z,19.03
2017-11-10T07:04:20.010Z,19.01
2017-11-10T07:06:46.221Z,19.02
2017-11-10T07:09:13.677Z,19.00
2017-11-10T07:11:40.150Z,19.02
2017-11-10T07:14:06.365Z,19.00
2017-11-10T07:16:32.870Z,18.97
2017-11-10T07:18:59.154Z,18.98
2017-11-10T07:21:25.375Z,18.98
2017-11-10T07:23:51.661Z,19.04
2017-11-10T07:26:17.895Z,19.09
2017-11-10T07:28:44.376Z,19.14
2017-11-10T07:31:11.367Z,19.13
2017-11-10T07:33:37.647Z,19.13
2017-11-10T07:36:03.862Z,19.13
2017-11-10T07:38:30.445Z,19.13
2017-11-10T07:40:56.891Z,19.10
2017-11-10T07:43:23.345Z,19.09
2017-11-10T07:45:49.814Z,19.10
2017-11-10T07:48:16.265Z,19.11
2017-11-10T07:50:42.981Z,19.08
2017-11-10T07:53:09.200Z,19.07
2017-11-10T07:55:35.405Z,19.10
2017-11-10T07:58:01.761Z,19.09
2017-11-10T08:00:27.986Z,19.07
2017-11-10T08:02:54.251Z,19.06
2017-11-10T08:05:20.607Z,19.06
2017-11-10T08:07:46.840Z,19.06
2017-11-10T08:10:13.199Z,19.06
2017-11-10T08:12:40.102Z,19.05
2017-11-10T08:15:06.309Z,19.06
2017-11-10T08:17:32.536Z,19.05
2017-11-10T08:19:59.483Z,19.05
2017-11-10T08:22:25.695Z,19.06
2017-11-10T08:24:51.931Z,19.07
2017-11-10T08:27:18.292Z,19.06
2017-11-10T08:29:44.574Z,19.09
2017-11-10T08:32:10.796Z,19.10
2017-11-10T08:34:37.460Z,19.10
2017-11-10T08:37:03.925Z,19.12
2017-11-10T08:39:30.140Z,19.09
2017-11-10T08:41:56.438Z,19.09
2017-11-10T08:44:22.679Z,19.10
2017-11-10T08:46:48.911Z,19.07
2017-11-10T08:49:16.120Z,19.07
2017-11-10T08:51:42.346Z,19.09
2017-11-10T08:54:08.800Z,19.06
2017-11-10T08:56:35.537Z,19.06
2017-11-10T08:59:01.774Z,19.06
2017-11-10T09:01:27.991Z,19.06
2017-11-10T09:03:54.563Z,19.05
2017-11-10T09:06:20.770Z,19.07
2017-11-10T09:08:47.039Z,19.08
2017-11-10T09:11:13.778Z,19.08
2017-11-10T09:13:40.038Z,19.05
2017-11-10T09:16:06.269Z,19.05
2017-11-10T09:18:32.957Z,19.04
2017-11-10T09:20:59.220Z,19.04
2017-11-10T09:23:25.490Z,19.06
2017-11-10T09:25:52.156Z,19.05
2017-11-10T09:28:28.326Z,19.03
2017-11-10T09:31:00.844Z,19.04
2017-11-10T09:33:28.062Z,19.04
2017-11-10T09:35:55.277Z,19.05
2017-11-10T09:38:53.679Z,19.07
2017-11-10T09:44:35.159Z,19.11
2017-11-10T09:47:07.625Z,19.13
2017-11-10T09:49:40.503Z,19.14
2017-11-10T09:55:19.506Z,19.12
2017-11-10T09:57:51.635Z,19.14
2017-11-10T10:00:24.057Z,19.12
2017-11-10T10:02:56.289Z,19.10
2017-11-10T10:08:31.265Z,19.10
2017-11-10T10:11:13.427Z,19.09
2017-11-10T10:13:49.758Z,19.11
2017-11-10T10:16:28.222Z,19.11
2017-11-10T10:19:00.285Z,19.10
2017-11-10T10:21:27.538Z,19.08
2017-11-10T10:23:53.807Z,19.08
2017-11-10T10:26:20.111Z,19.07
2017-11-10T10:28:46.506Z,19.04
2017-11-10T10:31:12.759Z,19.03
2017-11-10T10:33:38.977Z,19.00
2017-11-10T10:36:05.384Z,19.01
2017-11-10T10:38:31.600Z,18.99
2017-11-10T10:40:57.820Z,18.99
2017-11-10T10:43:24.076Z,18.97
2017-11-10T10:45:50.337Z,18.97
2017-11-10T10:48:16.589Z,18.99
2017-11-10T10:50:42.897Z,18.99
2017-11-10T10:53:09.119Z,19.00
2017-11-10T10:55:35.410Z,19.01
2017-11-10T10:58:01.678Z,19.03
2017-11-10T11:00:27.914Z,19.05
2017-11-10T11:02:54.351Z,19.06
2017-11-10T11:05:20.717Z,19.09
2017-11-10T11:07:47.162Z,19.10
2017-11-10T11:10:13.384Z,19.11
2017-11-10T11:12:39.746Z,19.07
2017-11-10T11:15:05.981Z,19.07
2017-11-10T11:17:32.207Z,19.07
2017-11-10T11:19:58.542Z,19.09
2017-11-10T11:22:24.765Z,19.08
2017-11-10T11:24:50.996Z,19.07
2017-11-10T11:27:17.278Z,19.06
2017-11-10T11:29:43.503Z,19.05
2017-11-10T11:32:09.740Z,19.03
2017-11-10T11:34:36.022Z,19.02
2017-11-10T11:37:02.245Z,18.99
2017-11-10T11:39:28.718Z,18.97
2017-11-10T11:41:55.078Z,18.95
2017-11-10T11:44:21.300Z,18.95
2017-11-10T11:46:47.498Z,18.92
2017-11-10T11:49:14.025Z,18.90
2017-11-10T11:51:40.225Z,18.85
2017-11-10T11:54:06.428Z,18.86
2017-11-10T11:56:32.819Z,18.84
2017-11-10T11:58:59.267Z,18.82
2017-11-10T12:01:25.668Z,18.78
2017-11-10T12:03:52.410Z,18.80
2017-11-10T12:06:18.752Z,18.79
2017-11-10T12:08:45.400Z,18.77
2017-11-10T12:11:11.812Z,18.76
2017-11-10T12:13:38.072Z,18.77
2017-11-10T12:16:04.442Z,18.75
2017-11-10T12:18:31.613Z,18.77
2017-11-10T12:20:58.126Z,18.75
2017-11-10T12:23:24.468Z,18.73
2017-11-10T12:25:50.871Z,18.72
2017-11-10T12:28:17.174Z,18.69
2017-11-10T12:30:43.556Z,18.66
2017-11-10T12:33:09.947Z,18.65
2017-11-10T12:35:36.224Z,18.62
2017-11-10T12:38:02.547Z,18.60
2017-11-10T12:40:29.120Z,18.63
2017-11-10T12:42:55.386Z,18.69
2017-11-10T12:45:21.678Z,18.72
2017-11-10T12:47:48.009Z,18.73
2017-11-10T12:50:14.275Z,18.77
2017-11-10T12:52:40.558Z,18.76
2017-11-10T12:55:06.995Z,18.74
2017-11-10T12:57:33.276Z,18.71
2017-11-10T12:59:59.516Z,18.67
2017-11-10T13:02:25.947Z,18.68
2017-11-10T13:04:52.533Z,18.67
2017-11-10T13:07:18.916Z,18.64
2017-11-10T13:09:45.581Z,18.67
2017-11-10T13:12:11.900Z,18.67
2017-11-10T13:14:38.179Z,18.66
2017-11-10T13:17:04.582Z,18.70
2017-11-10T13:19:30.948Z,18.76
2017-11-10T13:21:57.216Z,18.77
2017-11-10T13:24:23.649Z,18.77
2017-11-10T13:26:49.904Z,18.76
2017-11-10T13:29:16.162Z,18.76
2017-11-10T13:31:42.514Z,18.76
2017-11-10T13:34:08.793Z,18.76
2017-11-10T13:36:35.124Z,18.78
2017-11-10T13:39:01.402Z,18.80
2017-11-10T13:41:27.924Z,18.81
2017-11-10T13:43:54.261Z,18.80
2017-11-10T13:46:20.512Z,18.79
2017-11-10T13:48:46.790Z,18.77
2017-11-10T13:51:13.641Z,18.78
2017-11-10T13:53:39.908Z,18.89
2017-11-10T13:56:06.195Z,19.00
2017-11-10T13:58:32.850Z,19.02
2017-11-10T14:00:59.133Z,19.04
2017-11-10T14:03:25.471Z,19.02
2017-11-10T14:05:51.811Z,19.00
2017-11-10T14:08:18.085Z,18.97
2017-11-10T14:10:44.365Z,19.00
2017-11-10T14:13:10.697Z,19.07
2017-11-10T14:15:37.020Z,19.12
2017-11-10T14:18:03.679Z,19.17
2017-11-10T14:20:30.153Z,19.21
2017-11-10T14:22:56.480Z,19.29
2017-11-10T14:25:22.806Z,19.38
2017-11-10T14:27:49.521Z,19.34
2017-11-10T14:30:15.835Z,19.16
2017-11-10T14:32:42.119Z,19.04
2017-11-10T14:35:08.780Z,18.92
2017-11-10T14:37:35.054Z,18.87
2017-11-10T14:40:01.342Z,18.86
2017-11-10T14:42:28.497Z,18.84
2017-11-10T14:44:54.829Z,18.80
2017-11-10T14:47:21.120Z,18.78
2017-11-10T14:49:47.541Z,18.77
2017-11-10T14:52:13.808Z,18.73
2017-11-10T14:54:40.094Z,18.70
2017-11-10T14:57:06.763Z,18.68
2017-11-10T14:59:33.081Z,18.67
2017-11-10T15:01:59.367Z,18.65
2017-11-10T15:04:25.695Z,18.64
2017-11-10T15:06:51.949Z,18.63
2017-11-10T15:09:18.230Z,18.64
2017-11-10T15:11:44.593Z,18.64
2017-11-10T15:14:10.917Z,18.63
2017-11-10T15:16:37.198Z,18.62
2017-11-10T15:19:03.938Z,18.62
2017-11-10T15:21:30.229Z,18.62
2017-11-10T15:23:56.540Z,18.58
2017-11-10T15:26:23.256Z,18.55
2017-11-10T15:28:49.500Z,18.53
2017-11-10T15:31:15.832Z,18.51
2017-11-10T15:33:42.333Z,18.52
2017-11-10T15:36:08.607Z,18.48
2017-11-10T15:38:34.877Z,18.49
2017-11-10T15:41:01.570Z,18.45
2017-11-10T15:43:27.850Z,18.44
2017-11-10T15:45:54.141Z,18.43
2017-11-10T15:48:20.565Z,18.40
2017-11-10T15:50:46.829Z,18.40
2017-11-10T15:53:13.110Z,18.42
2017-11-10T15:55:39.422Z,18.41
2017-11-10T15:58:05.695Z,18.38
2017-11-10T16:00:31.971Z,18.36
2017-11-10T16:02:58.376Z,18.38
2017-11-10T16:05:24.590Z,18.36
2017-11-10T16:07:50.800Z,18.36
2017-11-10T16:10:17.147Z,18.32
2017-11-10T16:12:43.361Z,18.27
2017-11-10T16:15:09.817Z,18.29
2017-11-10T16:17:36.594Z,18.31
2017-11-10T16:20:02.804Z,18.30
2017-11-10T16:22:29.023Z,18.32
2017-11-10T16:24:55.620Z,18.32
2017-11-10T16:27:21.884Z,18.33
2017-11-10T16:29:48.109Z,18.34
2017-11-10T16:32:14.894Z,18.34
2017-11-10T16:34:41.114Z,18.32
2017-11-10T16:37:07.328Z,18.31
2017-11-10T16:39:33.634Z,18.30
2017-11-10T16:42:00.071Z,18.25
2017-11-10T16:44:26.282Z,18.30
2017-11-10T16:46:52.539Z,18.33
2017-11-10T16:49:18.849Z,18.31
2017-11-10T16:51:45.115Z,18.31
2017-11-10T16:54:11.800Z,18.30
2017-11-10T16:56:38.074Z,18.30
2017-11-10T16:59:04.375Z,18.29
2017-11-10T17:01:30.714Z,18.27
2017-11-10T17:03:57.422Z,18.27
2017-11-10T17:06:23.750Z,18.29
2017-11-10T17:08:50.193Z,18.25
2017-11-10T17:11:16.537Z,18.25
2017-11-10T17:13:42.869Z,18.26
2017-11-10T17:16:09.260Z,18.28
2017-11-10T17:18:35.668Z,18.30
2017-11-10T17:21:01.926Z,18.29
2017-11-10T17:23:28.765Z,18.31
2017-11-10T17:25:54.970Z,18.28
2017-11-10T17:28:21.171Z,18.27
2017-11-10T17:30:47.826Z,18.28
2017-11-10T17:33:14.281Z,18.30
2017-11-10T17:35:40.504Z,18.25
2017-11-10T17:38:07.017Z,18.26
2017-11-10T17:40:33.553Z,18.27
2017-11-10T17:42:59.786Z,18.28
2017-11-10T17:45:26.221Z,18.31
2017-11-10T17:47:52.528Z,18.30
2017-11-10T17:50:18.861Z,18.28
2017-11-10T17:52:45.205Z,18.28
2017-11-10T17:55:11.604Z,18.30
2017-11-10T17:57:37.978Z,18.30
2017-11-10T18:00:04.369Z,18.29
2017-11-10T18:02:30.816Z,18.30
2017-11-10T18:04:57.116Z,18.30
2017-11-10T18:07:23.775Z,18.29
2017-11-10T18:09:50.163Z,18.31
2017-11-10T18:12:16.441Z,18.31
2017-11-10T18:14:42.710Z,18.32
2017-11-10T18:17:09.047Z,18.31
2017-11-10T18:19:35.318Z,18.33
2017-11-10T18:22:01.593Z,18.33
2017-11-10T18:24:28.352Z,18.32
2017-11-10T18:26:54.665Z,18.31
2017-11-10T18:29:21.253Z,18.31
2017-11-10T18:31:47.593Z,18.29
2017-11-10T18:34:13.897Z,18.30
2017-11-10T18:36:40.185Z,18.31
2017-11-10T18:39:06.505Z,18.31
2017-11-10T18:41:32.855Z,18.32
2017-11-10T18:43:59.139Z,18.28
2017-11-10T18:46:25.501Z,18.28
2017-11-10T18:48:56.579Z,18.27
2017-11-10T18:51:22.864Z,18.30
2017-11-10T18:53:49.261Z,18.29
2017-11-10T18:56:15.536Z,18.22
2017-11-10T18:58:41.806Z,18.21
2017-11-10T19:01:08.137Z,18.20
2017-11-10T19:03:34.652Z,18.21
2017-11-10T19:06:00.932Z,18.22
2017-11-10T19:08:27.334Z,18.20
2017-11-10T19:10:53.604Z,18.20
2017-11-10T19:13:19.950Z,18.20
2017-11-10T19:15:46.365Z,18.21
2017-11-10T19:18:12.639Z,18.24
2017-11-10T19:20:38.913Z,18.24
2017-11-10T19:23:05.647Z,18.24
2017-11-10T19:25:32.044Z,18.24
2017-11-10T19:27:58.322Z,18.26
2017-11-10T19:30:24.692Z,18.27
2017-11-10T19:32:50.959Z,18.25
2017-11-10T19:35:17.285Z,18.25
2017-11-10T19:37:43.714Z,18.26
2017-11-10T19:40:10.001Z,18.28
2017-11-10T19:42:36.265Z,18.25
2017-11-10T19:45:02.652Z,18.21
2017-11-10T19:47:28.936Z,18.23
2017-11-10T19:49:55.197Z,18.23
2017-11-10T19:52:21.827Z,18.23
2017-11-10T19:54:48.101Z,18.24
2017-11-10T19:57:14.371Z,18.22
2017-11-10T19:59:41.349Z,18.22
2017-11-10T20:02:07.612Z,18.18
2017-11-10T20:04:34.129Z,18.19
2017-11-10T20:07:00.483Z,18.22
2017-11-10T20:09:26.788Z,18.22
2017-11-10T20:11:53.068Z,18.21
2017-11-10T20:14:19.978Z,18.24
2017-11-10T20:16:46.243Z,18.22
2017-11-10T20:19:12.518Z,18.24
2017-11-10T20:21:38.854Z,18.24
2017-11-10T20:24:05.165Z,18.23
2017-11-10T20:26:31.447Z,18.21
2017-11-10T20:28:57.851Z,18.20
2017-11-10T20:31:24.130Z,18.21
2017-11-10T20:33:50.409Z,18.22
2017-11-10T20:36:16.738Z,18.20
2017-11-10T20:38:43.018Z,18.19
2017-11-10T20:41:09.312Z,18.21
2017-11-10T20:43:35.681Z,18.19
2017-11-10T20:46:01.957Z,18.15
2017-11-10T20:48:28.281Z,18.16
2017-11-10T20:50:54.651Z,18.18
2017-11-10T20:53:20.952Z,18.17
2017-11-10T20:55:47.279Z,18.16
2017-11-10T20:58:13.612Z,18.17
2017-11-10T21:00:39.892Z,18.17
2017-11-10T21:03:06.520Z,18.18
2017-11-10T21:05:32.957Z,18.17
2017-11-10T21:07:59.226Z,18.16
2017-11-10T21:10:25.535Z,18.16
2017-11-10T21:12:51.844Z,18.15
2017-11-10T21:15:18.231Z,18.18
2017-11-10T21:17:44.569Z,18.14
2017-11-10T21:20:11.129Z,18.13
2017-11-10T21:22:38.396Z,18.13
2017-11-10T21:25:04.756Z,18.13
2017-11-10T21:27:31.076Z,18.13
2017-11-10T21:29:57.873Z,18.12
2017-11-10T21:32:24.128Z,18.12
2017-11-10T21:34:50.403Z,18.12
2017-11-10T21:37:16.801Z,18.14
2017-11-10T21:39:43.081Z,18.13
2017-11-10T21:42:09.393Z,18.12
2017-11-10T21:44:35.710Z,18.13
2017-11-10T21:47:02.007Z,18.12
2017-11-10T21:49:28.301Z,18.12
2017-11-10T21:51:54.989Z,18.13
2017-11-10T21:54:21.337Z,18.15
2017-11-10T21:56:47.604Z,18.16
2017-11-10T21:59:14.364Z,18.17
2017-11-10T22:01:40.643Z,18.15
2017-11-10T22:04:06.924Z,18.17
2017-11-10T22:06:33.658Z,18.18
2017-11-10T22:08:59.930Z,18.17
2017-11-10T22:11:26.204Z,18.17
2017-11-10T22:13:52.837Z,18.16
2017-11-10T22:16:19.361Z,18.16
2017-11-10T22:18:45.617Z,18.18
2017-11-10T22:21:12.002Z,18.17
2017-11-10T22:23:38.285Z,18.16
2017-11-10T22:26:04.610Z,18.11
2017-11-10T22:28:31.031Z,18.10
2017-11-10T22:30:57.299Z,18.10
2017-11-10T22:33:23.549Z,18.10
2017-11-10T22:35:50.570Z,18.10
2017-11-10T22:38:16.870Z,18.11
2017-11-10T22:40:43.145Z,18.13
2017-11-10T22:43:09.758Z,18.15
2017-11-10T22:45:36.032Z,18.13
2017-11-10T22:48:02.301Z,18.13
2017-11-10T22:50:28.632Z,18.16
2017-11-10T22:52:54.904Z,18.14
2017-11-10T22:55:21.177Z,18.10
2017-11-10T22:57:47.829Z,18.10
2017-11-10T23:00:14.128Z,18.13
2017-11-10T23:02:40.721Z,18.12
2017-11-10T23:05:07.092Z,18.14
2017-11-10T23:07:33.369Z,18.14
2017-11-10T23:09:59.640Z,18.13
2017-11-10T23:12:26.034Z,18.12
2017-11-10T23:14:52.341Z,18.10
2017-11-10T23:17:18.703Z,18.08
2017-11-10T23:19:45.322Z,18.08
2017-11-10T23:22:11.654Z,18.09
2017-11-10T23:24:37.964Z,18.12
2017-11-10T23:27:04.784Z,18.11
2017-11-10T23:29:31.009Z,18.12
2017-11-10T23:31:57.245Z,18.12
2017-11-10T23:34:23.534Z,18.13
2017-11-10T23:36:49.744Z,18.15
2017-11-10T23:39:15.971Z,18.13
2017-11-10T23:41:42.565Z,18.14
2017-11-10T23:44:09.038Z,18.14
2017-11-10T23:46:35.261Z,18.16
2017-11-10T23:49:01.889Z,18.16
2017-11-10T23:51:28.096Z,18.18
2017-11-10T23:53:54.305Z,18.18
2017-11-10T23:56:20.805Z,18.17
2017-11-10T23:58:47.023Z,18.14
